createdAt,value
2019-05-07T00:02:22.476Z,2.50
2019-05-07T00:04:52.148Z,2.40
2019-05-07T00:07:22.410Z,2.20
2019-05-07T00:09:52.406Z,2.20
2019-05-07T00:12:20.356Z,2.20
2019-05-07T00:14:59.054Z,2.20
2019-05-07T00:17:18.146Z,2.10
2019-05-07T00:19:46.401Z,2.00
2019-05-07T00:22:14.289Z,2.00
2019-05-07T00:24:42.805Z,2.00
2019-05-07T00:27:13.141Z,1.90
2019-05-07T00:29:42.845Z,2.10
2019-05-07T00:32:12.115Z,2.20
2019-05-07T00:34:46.408Z,2.10
2019-05-07T00:37:22.057Z,2.00
2019-05-07T00:40:12.994Z,1.90
2019-05-07T00:42:59.343Z,2.00
2019-05-07T00:45:47.144Z,1.90
2019-05-07T00:48:15.462Z,1.90
2019-05-07T00:50:45.344Z,1.90
2019-05-07T00:53:13.234Z,1.90
2019-05-07T00:55:42.301Z,1.70
2019-05-07T00:58:13.100Z,1.80
2019-05-07T01:00:42.053Z,1.80
2019-05-07T01:03:12.642Z,1.80
2019-05-07T01:05:39.953Z,1.70
2019-05-07T01:08:07.822Z,1.70
2019-05-07T01:10:36.098Z,1.70
2019-05-07T01:13:04.900Z,1.60
2019-05-07T01:15:34.737Z,1.60
2019-05-07T01:18:02.950Z,1.50
2019-05-07T01:20:32.954Z,1.50
2019-05-07T01:23:02.585Z,1.50
2019-05-07T01:25:32.696Z,1.50
2019-05-07T01:28:02.471Z,1.40
2019-05-07T01:30:32.291Z,1.50
2019-05-07T01:33:05.436Z,1.40
2019-05-07T01:35:52.873Z,1.50
2019-05-07T01:38:22.864Z,1.40
2019-05-07T01:40:52.080Z,1.40
2019-05-07T01:43:19.966Z,1.30
2019-05-07T01:45:52.354Z,1.40
2019-05-07T01:48:19.499Z,1.50
2019-05-07T01:50:48.453Z,1.50
2019-05-07T01:53:16.343Z,1.60
2019-05-07T01:55:44.472Z,1.60
2019-05-07T01:58:13.366Z,1.70
2019-05-07T02:00:42.403Z,1.70
2019-05-07T02:03:30.020Z,1.70
2019-05-07T02:06:10.329Z,1.70
2019-05-07T02:08:57.995Z,1.70
2019-05-07T02:11:32.673Z,1.60
2019-05-07T02:14:02.046Z,1.50
2019-05-07T02:16:29.960Z,1.70
2019-05-07T02:18:57.800Z,1.80
2019-05-07T02:21:25.932Z,2.00
2019-05-07T02:23:54.049Z,1.70
2019-05-07T02:26:22.542Z,1.70
2019-05-07T02:28:51.854Z,1.80
2019-05-07T02:31:22.950Z,1.90
2019-05-07T02:33:53.819Z,2.00
2019-05-07T02:36:23.391Z,2.00
2019-05-07T02:38:55.904Z,2.00
2019-05-07T02:41:27.588Z,1.90
2019-05-07T02:43:55.440Z,1.80
2019-05-07T02:47:03.939Z,1.80
2019-05-07T02:49:36.723Z,1.90
2019-05-07T02:52:27.338Z,1.90
2019-05-07T02:55:04.383Z,1.90
2019-05-07T02:57:34.046Z,1.80
2019-05-07T03:00:04.494Z,1.80
2019-05-07T03:02:33.190Z,1.80
2019-05-07T03:05:04.883Z,1.80
2019-05-07T03:07:33.644Z,1.80
2019-05-07T03:10:03.574Z,1.90
2019-05-07T03:12:33.474Z,1.90
2019-05-07T03:15:04.429Z,1.80
2019-05-07T03:17:33.371Z,1.90
2019-05-07T03:20:03.329Z,1.90
2019-05-07T03:22:33.814Z,1.80
2019-05-07T03:25:15.753Z,1.80
2019-05-07T03:27:45.262Z,1.90
2019-05-07T03:30:35.470Z,1.80
2019-05-07T03:33:08.166Z,1.90
2019-05-07T03:35:46.366Z,1.90
2019-05-07T03:38:13.210Z,1.90
2019-05-07T03:40:44.503Z,2.00
2019-05-07T03:43:13.973Z,2.00
2019-05-07T03:46:07.118Z,2.00
2019-05-07T03:48:36.047Z,2.10
2019-05-07T03:51:03.953Z,2.00
2019-05-07T03:53:33.808Z,2.00
2019-05-07T03:56:04.148Z,2.10
2019-05-07T03:58:33.924Z,2.20
2019-05-07T04:01:04.359Z,2.20
2019-05-07T04:03:34.200Z,2.10
2019-05-07T04:06:03.776Z,2.20
2019-05-07T04:08:33.569Z,2.20
2019-05-07T04:11:03.565Z,2.10
2019-05-07T04:13:33.501Z,2.00
2019-05-07T04:16:04.119Z,2.10
2019-05-07T04:18:33.042Z,2.20
2019-05-07T04:21:03.672Z,2.20
2019-05-07T04:23:33.760Z,2.40
2019-05-07T04:26:38.078Z,2.40
2019-05-07T04:29:07.855Z,2.50
2019-05-07T04:31:42.886Z,2.60
2019-05-07T04:34:44.353Z,2.60
2019-05-07T04:37:13.248Z,2.60
2019-05-07T04:39:53.795Z,2.70
2019-05-07T04:42:24.272Z,2.70
2019-05-07T04:44:54.034Z,2.70
2019-05-07T04:47:34.712Z,2.70
2019-05-07T04:49:53.449Z,2.70
2019-05-07T04:52:33.596Z,2.70
2019-05-07T04:55:04.126Z,2.80
2019-05-07T04:57:33.021Z,2.90
2019-05-07T05:00:03.370Z,2.70
2019-05-07T05:02:53.069Z,2.70
2019-05-07T05:05:23.674Z,2.60
2019-05-07T05:07:53.304Z,2.70
2019-05-07T05:10:23.489Z,2.80
2019-05-07T05:12:53.638Z,3.00
2019-05-07T05:15:22.208Z,3.10
2019-05-07T05:17:53.575Z,3.00
2019-05-07T05:20:23.651Z,3.00
2019-05-07T05:23:20.180Z,3.10
2019-05-07T05:25:48.032Z,3.20
2019-05-07T05:28:16.275Z,3.40
2019-05-07T05:30:48.508Z,3.40
2019-05-07T05:33:16.409Z,3.50
2019-05-07T05:35:44.617Z,3.60
2019-05-07T05:38:12.852Z,3.70
2019-05-07T05:40:42.660Z,3.70
2019-05-07T05:43:37.551Z,3.60
2019-05-07T05:46:06.728Z,3.60
2019-05-07T05:48:35.044Z,3.70
2019-05-07T05:51:32.333Z,3.60
2019-05-07T05:54:22.213Z,3.50
2019-05-07T05:56:55.213Z,3.50
2019-05-07T05:59:47.419Z,3.60
2019-05-07T06:02:18.043Z,3.90
2019-05-07T06:04:57.111Z,4.10
2019-05-07T06:07:42.623Z,4.20
2019-05-07T06:10:29.753Z,4.40
2019-05-07T06:13:12.401Z,4.20
2019-05-07T06:16:03.051Z,4.40
2019-05-07T06:18:44.962Z,4.40
2019-05-07T06:21:35.659Z,4.60
2019-05-07T06:24:05.954Z,4.70
2019-05-07T06:26:34.161Z,4.90
2019-05-07T06:29:02.514Z,5.00
2019-05-07T06:31:32.548Z,5.30
2019-05-07T06:34:01.885Z,5.40
2019-05-07T06:36:32.901Z,5.20
2019-05-07T06:39:12.599Z,5.30
2019-05-07T06:42:05.630Z,5.50
2019-05-07T06:44:33.849Z,5.40
2019-05-07T06:47:02.487Z,5.70
2019-05-07T06:49:32.438Z,5.80
2019-05-07T06:52:02.827Z,6.00
2019-05-07T06:54:32.134Z,6.20
2019-05-07T06:57:01.989Z,6.60
2019-05-07T06:59:39.557Z,6.60
2019-05-07T07:02:45.150Z,6.70
2019-05-07T07:05:33.201Z,6.60
2019-05-07T07:08:05.640Z,6.70
2019-05-07T07:10:52.166Z,6.60
2019-05-07T07:13:22.766Z,6.90
2019-05-07T07:15:52.201Z,6.90
2019-05-07T07:18:23.097Z,7.10
2019-05-07T07:20:52.445Z,7.70
2019-05-07T07:23:22.684Z,8.20
2019-05-07T07:25:52.264Z,7.90
2019-05-07T07:28:21.989Z,7.80
2019-05-07T07:31:13.588Z,7.60
2019-05-07T07:33:43.677Z,7.80
2019-05-07T07:36:12.052Z,8.20
2019-05-07T07:38:41.954Z,8.20
2019-05-07T07:41:25.443Z,8.30
2019-05-07T07:43:53.494Z,8.60
2019-05-07T07:46:22.114Z,8.90
2019-05-07T07:49:04.448Z,8.70
2019-05-07T07:51:34.266Z,8.40
2019-05-07T07:53:52.043Z,8.90
2019-05-07T07:56:52.258Z,9.30
2019-05-07T07:59:42.517Z,9.50
2019-05-07T08:02:23.022Z,9.60
2019-05-07T08:04:52.754Z,10.00
2019-05-07T08:07:22.824Z,9.80
2019-05-07T08:09:52.027Z,9.50
2019-05-07T08:12:22.201Z,9.30
2019-05-07T08:14:51.917Z,9.10
2019-05-07T08:17:22.165Z,8.90
2019-05-07T08:19:51.996Z,8.80
2019-05-07T08:22:22.363Z,9.00
2019-05-07T08:24:51.772Z,9.20
2019-05-07T08:27:22.010Z,9.50
2019-05-07T08:29:52.287Z,9.40
2019-05-07T08:32:32.522Z,9.40
2019-05-07T08:35:22.943Z,9.80
2019-05-07T08:37:51.834Z,10.90
2019-05-07T08:40:21.942Z,11.20
2019-05-07T08:42:52.408Z,11.50
2019-05-07T08:45:45.721Z,11.90
2019-05-07T08:48:19.215Z,11.70
2019-05-07T08:50:47.361Z,11.50
2019-05-07T08:53:15.254Z,11.50
2019-05-07T08:55:43.744Z,11.90
2019-05-07T08:58:12.126Z,11.90
2019-05-07T09:00:41.803Z,11.80
2019-05-07T09:03:21.671Z,11.40
2019-05-07T09:05:39.748Z,11.30
2019-05-07T09:08:07.692Z,11.10
2019-05-07T09:10:35.679Z,11.20
2019-05-07T09:13:03.884Z,11.30
2019-05-07T09:15:32.130Z,11.60
2019-05-07T09:18:02.001Z,12.30
2019-05-07T09:20:32.137Z,12.80
2019-05-07T09:23:02.098Z,12.60
2019-05-07T09:25:32.871Z,12.60
2019-05-07T09:28:02.600Z,11.60
2019-05-07T09:30:55.567Z,11.00
2019-05-07T09:33:32.047Z,10.40
2019-05-07T09:36:02.163Z,10.40
2019-05-07T09:38:32.611Z,10.70
2019-05-07T09:41:02.426Z,11.10
2019-05-07T09:43:32.465Z,11.90
2019-05-07T09:46:02.492Z,12.90
2019-05-07T09:48:30.777Z,13.10
2019-05-07T09:50:58.659Z,12.70
2019-05-07T09:53:26.550Z,12.40
2019-05-07T09:55:54.380Z,11.80
2019-05-07T09:58:35.020Z,11.10
2019-05-07T10:00:52.581Z,10.70
2019-05-07T10:03:22.664Z,10.70
2019-05-07T10:05:51.807Z,10.50
2019-05-07T10:08:20.478Z,10.60
2019-05-07T10:10:51.238Z,10.40
2019-05-07T10:13:33.102Z,10.40
2019-05-07T10:16:03.832Z,10.30
2019-05-07T10:18:32.049Z,10.00
2019-05-07T10:21:02.367Z,10.40
2019-05-07T10:23:30.061Z,10.40
2019-05-07T10:25:58.117Z,10.50
2019-05-07T10:28:26.047Z,10.30
2019-05-07T10:30:54.455Z,10.10
2019-05-07T10:33:22.878Z,10.00
2019-05-07T10:35:52.696Z,10.00
2019-05-07T10:38:21.839Z,10.50
2019-05-07T10:40:49.945Z,10.80
2019-05-07T10:43:17.931Z,11.00
2019-05-07T10:46:04.070Z,10.80
2019-05-07T10:48:43.045Z,10.60
2019-05-07T10:51:11.171Z,10.20
2019-05-07T10:53:39.852Z,9.60
2019-05-07T10:56:07.794Z,9.40
2019-05-07T10:58:36.045Z,9.30
2019-05-07T11:01:04.492Z,9.30
2019-05-07T11:03:32.643Z,9.20
2019-05-07T11:06:00.913Z,9.30
2019-05-07T11:08:28.764Z,9.40
2019-05-07T11:10:56.669Z,9.10
2019-05-07T11:13:24.535Z,9.30
2019-05-07T11:15:58.378Z,9.30
2019-05-07T11:18:46.400Z,9.90
2019-05-07T11:21:14.586Z,10.20
2019-05-07T11:23:42.678Z,10.50
2019-05-07T11:26:11.759Z,10.50
2019-05-07T11:28:39.725Z,10.50
2019-05-07T11:31:08.043Z,10.60
2019-05-07T11:33:36.846Z,10.50
2019-05-07T11:36:05.066Z,10.50
2019-05-07T11:38:33.548Z,10.60
2019-05-07T11:41:02.451Z,10.70
2019-05-07T11:43:49.901Z,10.90
2019-05-07T11:46:22.403Z,11.20
2019-05-07T11:49:02.090Z,11.30
2019-05-07T11:51:38.178Z,11.40
2019-05-07T11:54:12.418Z,11.70
2019-05-07T11:56:42.269Z,11.80
2019-05-07T11:59:10.061Z,11.90
2019-05-07T12:01:46.955Z,12.10
2019-05-07T12:04:12.509Z,12.30
2019-05-07T12:06:40.400Z,12.30
2019-05-07T12:09:08.755Z,12.20
2019-05-07T12:11:37.024Z,12.00
2019-05-07T12:14:05.558Z,11.40
2019-05-07T12:16:34.120Z,10.90
2019-05-07T12:19:02.360Z,11.00
2019-05-07T12:21:30.241Z,11.20
2019-05-07T12:23:58.177Z,11.30
2019-05-07T12:26:26.334Z,11.50
2019-05-07T12:28:55.497Z,11.30
2019-05-07T12:31:42.372Z,11.00
2019-05-07T12:34:14.384Z,11.50
2019-05-07T12:36:42.515Z,11.50
2019-05-07T12:39:12.586Z,11.50
2019-05-07T12:41:41.904Z,11.10
2019-05-07T12:44:12.773Z,10.90
2019-05-07T12:46:42.251Z,11.10
2019-05-07T12:49:12.008Z,11.30
2019-05-07T12:51:48.023Z,11.40
2019-05-07T12:54:22.829Z,11.40
2019-05-07T12:56:52.132Z,11.30
2019-05-07T12:59:21.842Z,11.30
2019-05-07T13:02:26.993Z,11.20
2019-05-07T13:04:45.718Z,11.00
2019-05-07T13:07:33.598Z,11.10
2019-05-07T13:10:02.584Z,11.20
2019-05-07T13:12:32.185Z,11.30
2019-05-07T13:15:02.765Z,11.30
2019-05-07T13:17:30.319Z,11.60
2019-05-07T13:19:58.124Z,11.80
2019-05-07T13:22:26.064Z,11.80
2019-05-07T13:24:53.882Z,12.00
2019-05-07T13:27:22.399Z,12.20
2019-05-07T13:29:52.963Z,12.50
2019-05-07T13:32:22.444Z,12.50
2019-05-07T13:34:52.396Z,12.70
2019-05-07T13:37:24.211Z,12.60
2019-05-07T13:39:59.663Z,12.40
2019-05-07T13:42:41.962Z,12.50
2019-05-07T13:45:22.419Z,12.50
2019-05-07T13:47:56.393Z,12.70
2019-05-07T13:50:24.630Z,13.10
2019-05-07T13:52:52.884Z,13.90
2019-05-07T13:55:21.823Z,14.20
2019-05-07T13:57:52.268Z,14.30
2019-05-07T14:00:29.355Z,14.10
2019-05-07T14:02:58.337Z,14.10
2019-05-07T14:05:26.547Z,13.50
2019-05-07T14:07:55.460Z,12.30
2019-05-07T14:10:23.438Z,11.20
2019-05-07T14:12:52.144Z,11.00
2019-05-07T14:15:23.013Z,11.50
2019-05-07T14:17:52.634Z,11.60
2019-05-07T14:20:22.184Z,11.50
2019-05-07T14:22:51.706Z,11.40
2019-05-07T14:25:19.545Z,11.70
2019-05-07T14:27:47.513Z,12.00
2019-05-07T14:30:15.836Z,12.50
2019-05-07T14:32:56.830Z,12.70
2019-05-07T14:35:42.833Z,11.90
2019-05-07T14:38:16.602Z,11.90
2019-05-07T14:40:44.577Z,12.10
2019-05-07T14:43:18.871Z,12.20
2019-05-07T14:45:47.046Z,12.30
2019-05-07T14:48:15.072Z,12.30
2019-05-07T14:50:44.989Z,12.30
2019-05-07T14:53:13.333Z,12.50
2019-05-07T14:55:41.934Z,12.50
2019-05-07T14:58:12.369Z,12.30
2019-05-07T15:00:42.756Z,12.00
2019-05-07T15:03:12.272Z,11.90
2019-05-07T15:05:42.044Z,12.10
2019-05-07T15:08:13.423Z,12.60
2019-05-07T15:10:41.726Z,12.40
2019-05-07T15:13:12.581Z,12.50
2019-05-07T15:15:41.077Z,12.60
2019-05-07T15:18:22.637Z,12.80
2019-05-07T15:20:50.088Z,12.90
2019-05-07T15:23:22.645Z,12.70
2019-05-07T15:25:51.724Z,12.30
2019-05-07T15:28:20.303Z,12.20
2019-05-07T15:31:07.999Z,12.30
2019-05-07T15:33:35.790Z,12.40
2019-05-07T15:36:06.440Z,12.60
2019-05-07T15:38:34.188Z,12.90
2019-05-07T15:41:03.372Z,12.80
2019-05-07T15:43:32.531Z,13.00
2019-05-07T15:46:02.020Z,13.10
2019-05-07T15:48:32.422Z,13.00
2019-05-07T15:51:00.208Z,13.10
2019-05-07T15:53:42.799Z,13.20
2019-05-07T15:56:12.467Z,13.40
2019-05-07T15:58:42.571Z,13.80
2019-05-07T16:01:12.673Z,14.10
2019-05-07T16:03:42.918Z,14.10
2019-05-07T16:06:12.648Z,13.40
2019-05-07T16:08:45.307Z,12.60
2019-05-07T16:11:13.170Z,12.20
2019-05-07T16:13:45.600Z,11.90
2019-05-07T16:16:14.207Z,11.90
2019-05-07T16:19:01.915Z,12.30
2019-05-07T16:21:32.303Z,11.70
2019-05-07T16:24:00.146Z,11.50
2019-05-07T16:26:28.274Z,11.30
2019-05-07T16:28:56.808Z,11.40
2019-05-07T16:31:24.800Z,11.10
2019-05-07T16:33:53.252Z,10.90
2019-05-07T16:36:21.980Z,10.80
2019-05-07T16:38:52.509Z,10.60
2019-05-07T16:41:22.354Z,10.60
2019-05-07T16:43:52.462Z,10.60
2019-05-07T16:46:22.214Z,10.60
2019-05-07T16:48:49.941Z,10.70
2019-05-07T16:51:18.561Z,10.80
2019-05-07T16:53:46.716Z,10.90
2019-05-07T16:56:14.544Z,10.90
2019-05-07T16:58:47.031Z,11.00
2019-05-07T17:01:15.043Z,11.00
2019-05-07T17:03:56.212Z,10.70
2019-05-07T17:06:26.910Z,10.50
2019-05-07T17:09:14.688Z,10.30
2019-05-07T17:11:43.648Z,10.10
2019-05-07T17:14:12.952Z,10.00
2019-05-07T17:16:41.531Z,10.10
2019-05-07T17:19:11.828Z,10.00
2019-05-07T17:21:40.294Z,10.10
2019-05-07T17:24:08.632Z,10.00
2019-05-07T17:26:36.575Z,10.10
2019-05-07T17:29:04.528Z,10.10
2019-05-07T17:31:35.830Z,10.00
2019-05-07T17:34:04.018Z,9.90
2019-05-07T17:36:33.069Z,9.90
2019-05-07T17:39:02.707Z,9.80
2019-05-07T17:41:33.149Z,9.80
2019-05-07T17:44:02.706Z,9.70
2019-05-07T17:46:32.412Z,9.70
2019-05-07T17:49:02.506Z,9.60
2019-05-07T17:51:43.072Z,9.50
2019-05-07T17:54:13.208Z,9.40
2019-05-07T17:56:42.217Z,9.40
2019-05-07T17:59:12.018Z,9.40
2019-05-07T18:01:50.091Z,9.40
2019-05-07T18:04:17.975Z,9.30
2019-05-07T18:06:45.852Z,9.30
2019-05-07T18:09:14.293Z,9.20
2019-05-07T18:11:42.885Z,9.20
2019-05-07T18:14:11.620Z,9.20
2019-05-07T18:17:02.156Z,9.20
2019-05-07T18:19:33.052Z,9.20
2019-05-07T18:22:02.648Z,9.10
2019-05-07T18:24:32.564Z,9.00
2019-05-07T18:27:01.931Z,9.00
2019-05-07T18:29:30.054Z,9.00
2019-05-07T18:32:01.618Z,8.90
2019-05-07T18:34:31.926Z,8.90
2019-05-07T18:37:01.767Z,8.80
2019-05-07T18:39:32.181Z,8.80
2019-05-07T18:41:59.928Z,8.80
2019-05-07T18:44:28.229Z,8.80
2019-05-07T18:46:56.175Z,8.80
2019-05-07T18:49:24.493Z,8.70
2019-05-07T18:51:53.008Z,8.70
2019-05-07T18:54:30.485Z,8.70
2019-05-07T18:56:52.888Z,8.60
2019-05-07T18:59:22.674Z,8.60
2019-05-07T19:01:52.669Z,8.60
2019-05-07T19:04:21.947Z,8.60
2019-05-07T19:06:51.615Z,8.60
2019-05-07T19:09:22.313Z,8.50
2019-05-07T19:11:52.273Z,8.50
2019-05-07T19:14:22.450Z,8.50
2019-05-07T19:16:52.402Z,8.50
2019-05-07T19:19:22.123Z,8.40
2019-05-07T19:21:50.225Z,8.40
2019-05-07T19:24:18.160Z,8.30
2019-05-07T19:26:46.325Z,8.30
2019-05-07T19:29:14.559Z,8.30
2019-05-07T19:31:43.013Z,8.30
2019-05-07T19:34:12.319Z,8.30
2019-05-07T19:36:42.397Z,8.20
2019-05-07T19:39:12.661Z,8.20
2019-05-07T19:41:42.856Z,8.20
2019-05-07T19:44:12.571Z,8.20
2019-05-07T19:46:40.481Z,8.20
2019-05-07T19:49:08.876Z,8.20
2019-05-07T19:51:37.283Z,8.20
2019-05-07T19:54:05.864Z,8.10
2019-05-07T19:56:34.845Z,8.10
2019-05-07T19:59:02.656Z,8.00
2019-05-07T20:01:54.266Z,8.00
2019-05-07T20:04:22.522Z,8.00
2019-05-07T20:06:55.530Z,7.90
2019-05-07T20:09:28.097Z,7.70
2019-05-07T20:11:56.296Z,7.70
2019-05-07T20:14:24.502Z,7.70
2019-05-07T20:16:53.250Z,7.70
2019-05-07T20:19:22.898Z,7.60
2019-05-07T20:21:52.418Z,7.50
2019-05-07T20:24:21.938Z,7.50
2019-05-07T20:26:52.449Z,7.50
2019-05-07T20:29:19.887Z,7.40
2019-05-07T20:31:47.783Z,7.40
2019-05-07T20:34:15.945Z,7.40
2019-05-07T20:36:44.108Z,7.50
2019-05-07T20:39:12.811Z,7.40
2019-05-07T20:41:42.914Z,7.40
2019-05-07T20:44:11.932Z,7.40
2019-05-07T20:46:41.989Z,7.40
2019-05-07T20:49:09.701Z,7.30
2019-05-07T20:51:37.674Z,7.30
2019-05-07T20:54:37.158Z,7.10
2019-05-07T20:57:07.883Z,7.10
2019-05-07T20:59:35.971Z,7.00
2019-05-07T21:02:03.873Z,7.00
2019-05-07T21:04:33.065Z,6.90
2019-05-07T21:07:02.193Z,6.90
2019-05-07T21:09:32.830Z,6.80
2019-05-07T21:12:00.890Z,6.70
2019-05-07T21:14:29.059Z,6.70
2019-05-07T21:16:57.040Z,6.50
2019-05-07T21:19:26.256Z,6.50
2019-05-07T21:21:54.443Z,6.40
2019-05-07T21:24:22.920Z,6.40
2019-05-07T21:26:53.081Z,6.60
2019-05-07T21:29:20.768Z,6.90
2019-05-07T21:31:48.946Z,6.80
2019-05-07T21:34:17.141Z,6.70
2019-05-07T21:36:45.434Z,6.70
2019-05-07T21:39:14.301Z,6.80
2019-05-07T21:41:42.751Z,6.80
2019-05-07T21:44:10.857Z,6.80
2019-05-07T21:46:39.526Z,6.80
2019-05-07T21:49:07.374Z,6.80
2019-05-07T21:51:35.781Z,6.70
2019-05-07T21:54:32.038Z,6.70
2019-05-07T21:57:25.618Z,6.60
2019-05-07T22:00:13.834Z,6.40
2019-05-07T22:02:43.544Z,6.20
2019-05-07T22:05:11.813Z,6.20
2019-05-07T22:07:40.102Z,6.10
2019-05-07T22:10:08.250Z,6.00
2019-05-07T22:12:37.328Z,6.10
2019-05-07T22:15:05.461Z,6.00
2019-05-07T22:17:33.429Z,5.90
2019-05-07T22:20:03.025Z,5.90
2019-05-07T22:22:31.988Z,5.80
2019-05-07T22:25:02.411Z,5.80
2019-05-07T22:27:33.055Z,5.70
2019-05-07T22:30:02.305Z,5.70
2019-05-07T22:32:43.750Z,5.70
2019-05-07T22:35:19.453Z,5.60
2019-05-07T22:37:49.498Z,5.70
2019-05-07T22:40:22.523Z,5.60
2019-05-07T22:42:52.799Z,5.60
2019-05-07T22:45:22.557Z,5.50
2019-05-07T22:47:52.514Z,5.50
2019-05-07T22:50:26.381Z,5.40
2019-05-07T22:52:54.702Z,5.40
2019-05-07T22:55:22.808Z,5.20
2019-05-07T22:58:08.904Z,5.20
2019-05-07T23:00:44.168Z,5.20
2019-05-07T23:03:12.901Z,5.10
2019-05-07T23:05:42.246Z,5.10
2019-05-07T23:08:12.802Z,5.00
2019-05-07T23:10:42.115Z,5.00
2019-05-07T23:13:12.829Z,4.90
2019-05-07T23:15:42.888Z,4.90
2019-05-07T23:18:13.039Z,4.90
2019-05-07T23:20:42.710Z,4.80
2019-05-07T23:23:13.947Z,4.70
2019-05-07T23:25:42.554Z,4.70
2019-05-07T23:28:12.434Z,4.70
2019-05-07T23:30:42.136Z,4.70
2019-05-07T23:33:12.050Z,4.60
2019-05-07T23:35:42.143Z,4.50
2019-05-07T23:38:12.193Z,4.50
2019-05-07T23:40:53.900Z,4.40
2019-05-07T23:43:22.709Z,4.40
2019-05-07T23:45:52.618Z,4.30
2019-05-07T23:48:22.703Z,4.30
2019-05-07T23:50:52.371Z,4.20
2019-05-07T23:53:22.371Z,4.20
2019-05-07T23:55:51.986Z,4.10
2019-05-07T23:58:20.252Z,4.20
